Time;durP1;ratioP1;P1;durP2;ratioP2;P2;SDS_P1;SDS_P2;PMS_P1;PMS_P2;Temp;Humidity;BMP_temperature;BMP_pressure;BME280_temperature;BME280_humidity;BME280_pressure;Samples;Min_cycle;Max_cycle;Signal;HPM_P1;HPM_P2
2021/09/01 00:00:53;;;;;;;12.88;7.10;;;;;;;12.68;80.69;100968.59;1686956;84;21093;-77
2021/09/01 00:03:19;;;;;;;11.83;6.90;;;;;;;12.71;80.75;100977.62;1686993;83;21068;-77
2021/09/01 00:05:45;;;;;;;10.58;6.78;;;;;;;12.74;80.78;100974.60;1686792;85;22187;-77
2021/09/01 00:08:11;;;;;;;10.63;6.45;;;;;;;12.79;80.82;100984.31;1687543;84;21550;-77
2021/09/01 00:10:37;;;;;;;9.90;7.08;;;;;;;12.83;80.83;100982.97;1717487;83;21122;-76
2021/09/01 00:13:03;;;;;;;9.90;5.92;;;;;;;12.84;80.85;100987.33;1718273;83;21641;-76
2021/09/01 00:15:30;;;;;;;11.30;7.15;;;;;;;12.86;80.89;100983.96;1730025;82;21496;-77
2021/09/01 00:17:56;;;;;;;11.93;6.83;;;;;;;12.89;80.92;100992.98;1748296;82;21011;-77
2021/09/01 00:20:23;;;;;;;12.90;6.67;;;;;;;12.89;80.95;100994.33;1744833;82;21061;-76
2021/09/01 00:22:49;;;;;;;11.78;6.60;;;;;;;12.89;80.96;100986.30;1718176;83;21507;-76
2021/09/01 00:25:15;;;;;;;10.30;7.12;;;;;;;12.90;80.98;100989.31;1718447;82;21848;-76
2021/09/01 00:27:41;;;;;;;12.20;7.37;;;;;;;12.90;81.02;100989.31;1727039;82;21082;-76
2021/09/01 00:30:07;;;;;;;10.90;6.87;;;;;;;12.85;81.04;100979.61;1748327;82;21011;-77
2021/09/01 00:32:33;;;;;;;9.30;6.33;;;;;;;12.79;81.08;100979.80;1743395;82;21086;-76
2021/09/01 00:34:59;;;;;;;16.50;7.20;;;;;;;12.74;81.11;100987.48;1748360;82;20999;-76
2021/09/01 00:37:25;;;;;;;13.32;6.83;;;;;;;12.68;81.14;100981.98;1747472;82;21708;-76
2021/09/01 00:39:51;;;;;;;14.75;7.20;;;;;;;12.62;81.18;100984.84;1748118;82;21546;-77
2021/09/01 00:42:17;;;;;;;10.60;6.78;;;;;;;12.58;81.24;100989.35;1747868;82;21047;-76
2021/09/01 00:44:46;;;;;;;11.97;7.70;;;;;;;12.52;81.26;100996.22;1745094;82;21051;-76
2021/09/01 00:47:13;;;;;;;9.38;7.45;;;;;;;12.47;81.31;100993.20;1747667;82;21023;-76
2021/09/01 00:49:39;;;;;;;11.05;6.90;;;;;;;12.42;81.35;100997.70;1747417;81;21130;-76
2021/09/01 00:52:06;;;;;;;12.33;7.65;;;;;;;12.37;81.41;100989.36;1748012;82;20988;-76
2021/09/01 00:54:32;;;;;;;10.95;7.58;;;;;;;12.35;81.45;100999.91;1747956;82;21544;-76
2021/09/01 00:57:01;;;;;;;16.25;7.12;;;;;;;12.31;81.51;101011.44;1748240;82;21558;-76
2021/09/01 00:59:30;;;;;;;13.28;7.75;;;;;;;12.30;81.55;101006.23;1726369;82;21507;-76
2021/09/01 01:02:00;;;;;;;11.35;7.17;;;;;;;12.30;81.63;101006.23;1728178;82;21147;-76
2021/09/01 01:04:28;;;;;;;12.23;7.75;;;;;;;12.28;81.67;101007.73;1727126;82;21027;-76
2021/09/01 01:07:03;;;;;;;11.57;7.60;;;;;;;12.25;81.72;101009.41;1731998;81;21168;-76
2021/09/01 01:09:34;;;;;;;14.98;8.20;;;;;;;12.21;81.78;101002.70;1711400;83;21556;-76
2021/09/01 01:12:12;;;;;;;14.33;7.95;;;;;;;12.19;81.88;101004.72;1704007;84;21114;-76
2021/09/01 01:14:41;;;;;;;12.37;8.48;;;;;;;12.18;81.93;101011.06;1707654;82;21982;-76
2021/09/01 01:17:09;;;;;;;14.93;8.87;;;;;;;12.17;82.00;101003.23;1718535;82;21545;-77
2021/09/01 01:19:51;;;;;;;15.72;9.23;;;;;;;12.15;82.05;101008.73;1733669;82;21348;-76
2021/09/01 01:22:25;;;;;;;13.70;8.63;;;;;;;12.14;82.11;101007.58;1734065;82;21060;-76
2021/09/01 01:25:07;;;;;;;14.05;8.08;;;;;;;12.10;82.19;101008.41;1727447;82;21019;-76
2021/09/01 01:27:43;;;;;;;14.35;8.83;;;;;;;12.08;82.25;101012.22;1704477;83;21395;-76
2021/09/01 01:30:18;;;;;;;15.95;8.98;;;;;;;12.07;82.32;101011.38;1687352;84;21477;-76
2021/09/01 01:32:46;;;;;;;13.95;8.40;;;;;;;12.05;82.40;101013.39;1672914;84;21067;-76
2021/09/01 01:35:35;;;;;;;13.93;8.53;;;;;;;12.04;82.45;101019.73;1704477;83;21075;-76
2021/09/01 01:38:04;;;;;;;18.27;8.97;;;;;;;12.03;82.53;101017.24;1699946;84;21016;-76
2021/09/01 01:40:30;;;;;;;15.68;8.80;;;;;;;12.05;82.59;101021.41;1660001;86;21026;-76
2021/09/01 01:42:56;;;;;;;13.45;9.33;;;;;;;12.05;82.64;101023.24;1687413;85;20990;-76
2021/09/01 01:45:23;;;;;;;13.55;8.58;;;;;;;12.04;82.70;101022.41;1688218;83;21608;-76
2021/09/01 01:47:50;;;;;;;12.28;8.15;;;;;;;12.03;82.78;101029.27;1669244;86;21087;-77
2021/09/01 01:50:16;;;;;;;12.88;8.80;;;;;;;12.01;82.83;101028.08;1698613;83;21048;-77
2021/09/01 01:52:42;;;;;;;16.48;9.78;;;;;;;12.01;82.90;101032.09;1687619;85;21199;-77
2021/09/01 01:55:10;;;;;;;21.10;9.93;;;;;;;12.00;82.97;101023.73;1671508;85;21054;-77
2021/09/01 01:57:36;;;;;;;12.13;8.43;;;;;;;11.99;83.01;101027.42;1672457;84;21057;-77
2021/09/01 02:00:05;;;;;;;17.15;8.70;;;;;;;11.98;83.06;101039.11;1671650;85;21538;-77
2021/09/01 02:02:32;;;;;;;15.18;10.03;;;;;;;11.97;83.13;101034.75;1673840;84;21466;-77
2021/09/01 02:04:59;;;;;;;14.43;9.50;;;;;;;11.96;83.17;101035.77;1671824;84;21181;-77
2021/09/01 02:07:26;;;;;;;17.23;10.43;;;;;;;11.94;83.25;101029.73;1699716;84;21535;-76
2021/09/01 02:09:52;;;;;;;13.70;9.75;;;;;;;11.91;83.29;101036.25;1697229;83;21303;-77
2021/09/01 02:12:18;;;;;;;12.75;9.48;;;;;;;11.89;83.36;101040.09;1689527;84;21060;-77
2021/09/01 02:14:44;;;;;;;16.02;10.53;;;;;;;11.85;83.43;101038.75;1720321;82;21031;-77
2021/09/01 02:17:10;;;;;;;17.77;10.78;;;;;;;11.82;83.48;101034.53;1730306;82;21143;-77
2021/09/01 02:19:36;;;;;;;13.93;10.75;;;;;;;11.81;83.52;101038.72;1718463;83;21064;-77
2021/09/01 02:22:03;;;;;;;18.50;10.32;;;;;;;11.80;83.57;101037.05;1748870;81;21003;-77
2021/09/01 02:24:29;;;;;;;16.87;10.05;;;;;;;11.78;83.61;101038.56;1718704;83;20962;-77
2021/09/01 02:26:56;;;;;;;17.67;10.68;;;;;;;11.78;83.67;101040.39;1749314;81;21016;-77
2021/09/01 02:29:22;;;;;;;16.32;10.63;;;;;;;11.76;83.70;101042.37;1718552;83;21172;-77
2021/09/01 02:31:48;;;;;;;21.20;11.85;;;;;;;11.78;83.75;101043.06;1739815;81;21512;-77
2021/09/01 02:34:14;;;;;;;16.45;9.90;;;;;;;11.78;83.79;101041.73;1719381;83;21007;-77
2021/09/01 02:36:40;;;;;;;14.83;10.95;;;;;;;11.76;83.84;101039.70;1719407;83;21060;-77
2021/09/01 02:39:06;;;;;;;17.60;11.08;;;;;;;11.78;83.87;101043.06;1719355;83;21012;-77
2021/09/01 02:41:32;;;;;;;18.77;11.25;;;;;;;11.77;83.93;101043.56;1719445;83;21031;-77
2021/09/01 02:43:58;;;;;;;19.85;11.38;;;;;;;11.80;83.96;101041.05;1723722;82;21031;-77
2021/09/01 02:46:24;;;;;;;17.95;11.00;;;;;;;11.81;83.99;101039.56;1718755;83;20958;-77
2021/09/01 02:48:50;;;;;;;17.77;11.30;;;;;;;11.84;84.04;101045.08;1749319;81;21493;-77
2021/09/01 02:51:16;;;;;;;15.03;10.20;;;;;;;11.85;84.06;101034.73;1745229;82;22031;-77
2021/09/01 02:53:42;;;;;;;15.18;10.15;;;;;;;11.86;84.12;101035.89;1719351;83;21993;-77
2021/09/01 02:56:08;;;;;;;14.68;10.30;;;;;;;11.85;84.15;101034.73;1737608;82;20979;-77
2021/09/01 02:58:34;;;;;;;15.13;10.80;;;;;;;11.86;84.22;101039.90;1706861;83;21020;-77
2021/09/01 03:01:00;;;;;;;15.78;10.55;;;;;;;11.89;84.25;101030.74;1721749;82;21034;-77
2021/09/01 03:03:26;;;;;;;15.63;11.28;;;;;;;11.92;84.28;101025.06;1748645;82;21007;-77
2021/09/01 03:05:53;;;;;;;15.72;10.30;;;;;;;11.92;84.31;101030.41;1718521;83;21852;-77
2021/09/01 03:08:19;;;;;;;19.67;10.38;;;;;;;11.92;84.34;101030.41;1747217;81;21031;-77
2021/09/01 03:10:45;;;;;;;16.02;11.03;;;;;;;11.93;84.37;101032.91;1727394;83;21018;-77
2021/09/01 03:13:11;;;;;;;17.32;10.45;;;;;;;11.94;84.40;101028.40;1718502;78;21249;-75
2021/09/01 03:15:37;;;;;;;15.00;9.63;;;;;;;11.96;84.44;101033.10;1697383;82;21113;-75
2021/09/01 03:18:03;;;;;;;16.17;9.93;;;;;;;11.98;84.45;101036.44;1688991;84;22256;-75
2021/09/01 03:20:29;;;;;;;15.80;10.63;;;;;;;11.99;84.48;101043.46;1682688;85;21566;-75
2021/09/01 03:22:55;;;;;;;14.93;10.03;;;;;;;11.99;84.50;101046.98;1682811;85;21106;-75
2021/09/01 03:25:21;;;;;;;17.25;10.28;;;;;;;11.99;84.53;101040.79;1688923;85;21515;-75
2021/09/01 03:27:47;;;;;;;16.67;10.23;;;;;;;11.99;84.54;101042.12;1688855;85;20994;-75
2021/09/01 03:30:14;;;;;;;15.78;9.85;;;;;;;12.00;84.58;101042.44;1688997;84;21167;-75
2021/09/01 03:32:40;;;;;;;15.23;9.30;;;;;;;12.02;84.59;101048.48;1680023;84;21008;-76
2021/09/01 03:35:06;;;;;;;20.37;9.80;;;;;;;12.00;84.60;101042.44;1679368;85;21040;-76
2021/09/01 03:37:32;;;;;;;16.05;10.35;;;;;;;11.99;84.61;101041.63;1679048;85;21591;-76
2021/09/01 03:39:59;;;;;;;18.85;9.70;;;;;;;11.99;84.66;101049.65;1678982;85;21005;-75
2021/09/01 03:42:25;;;;;;;19.10;10.35;;;;;;;11.99;84.67;101040.79;1679328;85;21156;-76
2021/09/01 03:44:51;;;;;;;13.18;9.35;;;;;;;11.99;84.67;101050.14;1677990;85;20971;-76
2021/09/01 03:47:17;;;;;;;15.53;10.48;;;;;;;11.98;84.67;101039.11;1679261;85;21043;-77
2021/09/01 03:49:43;;;;;;;15.53;10.85;;;;;;;11.96;84.69;101041.13;1679387;85;20955;-76
2021/09/01 03:52:09;;;;;;;16.05;10.50;;;;;;;11.96;84.71;101049.14;1679007;85;21008;-76
2021/09/01 03:54:35;;;;;;;15.63;9.98;;;;;;;11.96;84.71;101049.14;1679309;85;21145;-76
2021/09/01 03:57:01;;;;;;;14.30;9.55;;;;;;;11.94;84.73;101053.30;1679300;85;20983;-75
2021/09/01 03:59:27;;;;;;;15.78;10.40;;;;;;;11.96;84.75;101057.97;1678039;85;21028;-76
2021/09/01 04:01:53;;;;;;;14.80;10.28;;;;;;;11.96;84.76;101057.16;1676687;85;21070;-75
2021/09/01 04:04:19;;;;;;;14.35;9.93;;;;;;;11.99;84.78;101054.16;1663473;85;21700;-75
2021/09/01 04:06:45;;;;;;;17.90;10.55;;;;;;;11.98;84.77;101060.49;1663307;86;21686;-76
2021/09/01 04:09:11;;;;;;;13.25;9.18;;;;;;;11.96;84.78;101065.98;1663495;86;21009;-76
2021/09/01 04:11:37;;;;;;;17.17;9.10;;;;;;;11.95;84.79;101068.34;1663315;85;21033;-76
2021/09/01 04:14:03;;;;;;;14.65;9.10;;;;;;;11.94;84.80;101069.83;1689689;82;21056;-76
2021/09/01 04:16:29;;;;;;;15.83;9.93;;;;;;;11.93;84.83;101073.49;1714861;83;21059;-75
2021/09/01 04:18:55;;;;;;;15.58;9.25;;;;;;;11.95;84.84;101074.19;1715108;83;21622;-75
2021/09/01 04:21:21;;;;;;;15.30;9.68;;;;;;;11.98;84.85;101073.86;1723455;83;21551;-75
2021/09/01 04:23:47;;;;;;;15.75;9.23;;;;;;;12.02;84.84;101073.87;1723430;82;21507;-75
2021/09/01 04:26:13;;;;;;;13.98;8.98;;;;;;;12.07;84.83;101071.53;1724222;82;20951;-75
2021/09/01 04:28:39;;;;;;;14.40;9.90;;;;;;;12.11;84.85;101072.88;1724971;83;21011;-75
2021/09/01 04:31:05;;;;;;;18.15;9.43;;;;;;;12.14;84.84;101076.56;1725538;81;21132;-75
2021/09/01 04:33:31;;;;;;;16.95;9.45;;;;;;;12.17;84.87;101076.76;1718085;81;21011;-75
2021/09/01 04:35:58;;;;;;;15.32;9.45;;;;;;;12.19;84.85;101078.27;1719434;83;21024;-75
2021/09/01 04:38:24;;;;;;;15.28;8.85;;;;;;;12.28;84.93;101086.62;1719208;83;21563;-76
2021/09/01 04:40:50;;;;;;;13.13;8.48;;;;;;;12.71;85.13;101087.34;1719569;83;21050;-76
2021/09/01 04:43:16;;;;;;;14.43;9.40;;;;;;;13.20;85.10;101095.72;1719379;82;21149;-76
2021/09/01 04:45:42;;;;;;;11.10;8.45;;;;;;;13.36;84.86;101099.73;1712867;82;20996;-76
2021/09/01 04:48:08;;;;;;;13.05;8.80;;;;;;;13.40;84.62;101092.19;1705149;84;21122;-76
2021/09/01 04:50:34;;;;;;;13.90;8.80;;;;;;;13.28;84.44;101094.37;1713045;82;21084;-75
2021/09/01 04:53:00;;;;;;;12.85;8.58;;;;;;;13.22;84.46;101097.74;1704280;84;21025;-76
2021/09/01 04:55:26;;;;;;;11.48;8.13;;;;;;;13.15;84.34;101107.96;1733341;82;21161;-75
2021/09/01 04:57:52;;;;;;;12.33;9.00;;;;;;;13.05;84.34;101107.27;1717901;82;21598;-75
2021/09/01 05:00:18;;;;;;;14.03;8.53;;;;;;;12.93;84.32;101105.42;1717376;82;21027;-76
2021/09/01 05:02:44;;;;;;;13.78;8.38;;;;;;;12.94;84.35;101107.11;1719270;82;21492;-76
2021/09/01 05:05:11;;;;;;;21.27;10.75;;;;;;;13.22;84.38;101103.10;1719678;83;21019;-76
2021/09/01 05:07:37;;;;;;;19.52;10.10;;;;;;;13.68;84.38;101100.64;1690539;84;21093;-77
2021/09/01 05:10:04;;;;;;;12.00;8.78;;;;;;;14.54;84.37;101099.20;1690619;84;21027;-76
2021/09/01 05:12:30;;;;;;;10.90;7.97;;;;;;;15.30;84.03;101103.95;1695475;82;21031;-77
2021/09/01 05:14:56;;;;;;;12.20;8.83;;;;;;;15.95;83.56;101101.37;1714080;82;21110;-76
2021/09/01 05:17:23;;;;;;;11.10;7.00;;;;;;;16.52;83.13;101103.78;1711092;83;21495;-76
2021/09/01 05:19:49;;;;;;;15.23;8.00;;;;;;;16.74;82.43;101108.20;1717043;82;21317;-76
2021/09/01 05:22:20;;;;;;;11.38;6.42;;;;;;;16.13;81.68;101106.35;1719459;82;21520;-76
2021/09/01 05:25:05;;;;;;;13.32;7.75;;;;;;;15.53;81.57;101086.92;1738573;81;21055;-76
2021/09/01 05:27:36;;;;;;;9.95;7.17;;;;;;;15.15;81.54;101111.64;1745462;82;21043;-77
2021/09/01 05:30:05;;;;;;;12.07;7.72;;;;;;;14.73;81.70;101116.20;1706219;82;21019;-76
2021/09/01 05:32:31;;;;;;;12.20;7.05;;;;;;;14.52;81.71;101114.16;1737539;82;21751;-77
2021/09/01 05:34:59;;;;;;;17.80;8.28;;;;;;;14.65;81.65;101122.95;1731213;82;20976;-77
2021/09/01 05:37:25;;;;;;;11.65;7.03;;;;;;;14.82;81.54;101132.56;1696915;83;21043;-77
2021/09/01 05:39:54;;;;;;;11.30;7.55;;;;;;;14.59;81.49;101100.86;1718192;83;21531;-77
2021/09/01 05:42:23;;;;;;;11.48;7.58;;;;;;;14.63;81.40;101142.45;1714468;83;21043;-76
2021/09/01 05:44:49;;;;;;;9.28;7.53;;;;;;;14.63;81.40;101142.45;1711714;82;21126;-76
2021/09/01 05:47:16;;;;;;;12.40;8.08;;;;;;;14.40;81.56;101140.56;1705104;83;21063;-77
2021/09/01 05:49:43;;;;;;;10.05;7.80;;;;;;;14.23;81.24;101149.68;1732588;82;21050;-77
2021/09/01 05:52:10;;;;;;;12.18;8.13;;;;;;;14.09;81.18;101153.09;1710126;82;21048;-77
2021/09/01 05:54:38;;;;;;;12.00;8.60;;;;;;;13.97;81.10;101152.63;1700195;82;21089;-76
2021/09/01 05:57:16;;;;;;;11.55;8.13;;;;;;;13.88;81.08;101155.03;1699867;82;21780;-76
2021/09/01 05:59:58;;;;;;;14.75;9.00;;;;;;;13.78;81.02;101158.91;1709604;82;21067;-76
2021/09/01 06:02:53;;;;;;;15.48;8.05;;;;;;;13.73;80.98;101161.26;1723939;82;21122;-77
2021/09/01 06:05:21;;;;;;;13.05;8.80;;;;;;;13.73;80.94;101171.48;1708543;82;21032;-76
2021/09/01 06:07:58;;;;;;;14.25;9.40;;;;;;;13.69;80.93;101174.17;1705267;82;21488;-78
2021/09/01 06:10:29;;;;;;;13.83;8.90;;;;;;;13.74;80.91;101168.30;1710719;82;21116;-77
2021/09/01 06:13:01;;;;;;;13.70;8.98;;;;;;;13.82;80.94;101169.63;1714734;82;21714;-77
2021/09/01 06:15:27;;;;;;;12.65;8.93;;;;;;;13.85;80.92;101165.26;1710023;82;21131;-77
2021/09/01 06:17:53;;;;;;;13.68;8.78;;;;;;;13.92;80.92;101160.88;1707387;82;21072;-77
2021/09/01 06:20:20;;;;;;;11.48;8.98;;;;;;;13.97;80.92;101159.84;1705774;82;20888;-76
2021/09/01 06:22:46;;;;;;;11.35;8.90;;;;;;;14.18;80.92;101173.50;1714672;82;21123;-77
2021/09/01 06:25:13;;;;;;;14.87;9.08;;;;;;;14.61;80.87;101165.43;1707048;82;21044;-77
2021/09/01 06:27:40;;;;;;;12.40;8.55;;;;;;;15.00;80.75;101156.77;1707513;82;21062;-77
2021/09/01 06:30:09;;;;;;;11.70;8.73;;;;;;;15.23;80.65;101161.29;1712078;82;21025;-77
2021/09/01 06:32:34;;;;;;;13.03;8.13;;;;;;;15.37;80.51;101159.98;1709701;82;21048;-77
2021/09/01 06:35:00;;;;;;;13.25;8.63;;;;;;;15.47;80.45;101166.44;1714981;82;21119;-77
2021/09/01 06:37:26;;;;;;;10.60;8.03;;;;;;;15.50;80.04;101147.28;1706443;83;21085;-76
2021/09/01 06:39:53;;;;;;;15.03;8.30;;;;;;;15.50;80.04;101147.28;1709030;83;21072;-77
2021/09/01 06:42:20;;;;;;;12.25;7.90;;;;;;;15.91;80.15;101161.11;1710723;82;21032;-77
2021/09/01 06:44:46;;;;;;;13.90;8.33;;;;;;;16.04;80.05;101163.16;1710359;82;21590;-77
2021/09/01 06:47:12;;;;;;;14.13;8.28;;;;;;;16.13;79.83;101161.52;1711622;82;21204;-77
2021/09/01 06:49:38;;;;;;;15.93;8.80;;;;;;;16.26;79.73;101154.95;1709039;83;21071;-77
2021/09/01 06:52:04;;;;;;;16.07;7.45;;;;;;;16.40;79.49;101159.47;1709550;83;20906;-77
2021/09/01 06:54:30;;;;;;;12.23;8.00;;;;;;;16.55;79.37;101159.95;1707411;83;21121;-77
2021/09/01 06:56:57;;;;;;;16.35;7.92;;;;;;;16.61;79.20;101160.56;1715833;82;21034;-76
2021/09/01 06:59:23;;;;;;;11.20;8.10;;;;;;;16.62;78.94;101162.23;1711663;82;21995;-76
2021/09/01 07:01:49;;;;;;;12.30;8.08;;;;;;;16.62;78.69;101163.08;1713858;83;20942;-76
2021/09/01 07:04:15;;;;;;;13.53;8.10;;;;;;;16.72;78.55;101170.84;1710125;83;21141;-76
2021/09/01 07:06:41;;;;;;;14.33;7.85;;;;;;;16.81;78.24;101167.02;1709387;83;21041;-76
2021/09/01 07:09:07;;;;;;;12.30;7.70;;;;;;;16.98;78.05;101167.08;1707925;83;21096;-76
2021/09/01 07:11:33;;;;;;;10.82;7.40;;;;;;;17.15;77.92;101167.12;1703767;83;21085;-76
2021/09/01 07:13:59;;;;;;;14.20;8.25;;;;;;;17.15;77.70;101163.09;1712259;82;20981;-76
2021/09/01 07:16:25;;;;;;;14.40;8.18;;;;;;;17.35;77.58;101170.82;1710441;83;21081;-76
2021/09/01 07:18:51;;;;;;;11.43;7.87;;;;;;;17.54;77.40;101165.78;1712263;82;21021;-76
2021/09/01 07:21:17;;;;;;;12.50;6.83;;;;;;;17.68;77.19;101167.57;1710690;82;21040;-76
2021/09/01 07:23:43;;;;;;;9.23;6.80;;;;;;;17.74;76.99;101168.13;1710936;83;21146;-76
2021/09/01 07:26:11;;;;;;;9.83;6.83;;;;;;;17.79;76.68;101165.17;1706301;83;21005;-76
2021/09/01 07:28:38;;;;;;;11.97;6.87;;;;;;;17.90;76.52;101165.97;1708997;83;21002;-76
2021/09/01 07:31:07;;;;;;;14.05;6.53;;;;;;;18.10;76.34;101163.36;1701786;83;21500;-76
2021/09/01 07:33:33;;;;;;;12.43;6.50;;;;;;;18.26;76.03;101167.05;1705492;83;21614;-76
2021/09/01 07:35:59;;;;;;;9.88;5.92;;;;;;;18.39;75.80;101176.59;1709447;83;21222;-76
2021/09/01 07:38:25;;;;;;;11.88;6.35;;;;;;;18.37;75.55;101173.75;1709306;83;21433;-77
2021/09/01 07:40:52;;;;;;;9.45;5.22;;;;;;;18.31;75.25;101179.97;1709647;83;21527;-77
2021/09/01 07:43:21;;;;;;;9.00;5.15;;;;;;;18.33;75.06;101177.92;1709501;84;21595;-76
2021/09/01 07:45:47;;;;;;;7.22;5.10;;;;;;;18.27;74.69;101173.30;1709815;84;21016;-76
2021/09/01 07:48:14;;;;;;;6.87;4.62;;;;;;;18.33;74.46;101177.38;1709544;83;21225;-76
2021/09/01 07:50:40;;;;;;;7.78;4.53;;;;;;;18.30;74.02;101184.53;1709568;83;21027;-76
2021/09/01 07:53:06;;;;;;;8.43;4.85;;;;;;;18.26;73.66;101186.50;1709325;84;21012;-76
2021/09/01 07:55:32;;;;;;;7.55;4.62;;;;;;;18.15;73.35;101201.92;1717903;83;21040;-77
2021/09/01 07:57:58;;;;;;;9.53;4.97;;;;;;;18.17;73.10;101193.92;1718152;83;21543;-76
2021/09/01 08:00:24;;;;;;;8.08;4.17;;;;;;;18.17;72.79;101201.19;1717485;83;22098;-76
2021/09/01 08:02:52;;;;;;;6.50;4.53;;;;;;;18.12;72.39;101199.08;1718051;83;21071;-76
2021/09/01 08:05:19;;;;;;;6.85;3.95;;;;;;;18.30;72.27;101198.03;1718076;83;21000;-76
2021/09/01 08:07:46;;;;;;;5.25;3.98;;;;;;;18.40;72.06;101199.84;1718125;83;21083;-76
2021/09/01 08:10:12;;;;;;;6.53;3.75;;;;;;;18.48;71.86;101196.97;1718014;83;21007;-76
2021/09/01 08:12:39;;;;;;;11.43;4.28;;;;;;;18.62;71.50;101201.09;1717765;82;21204;-76
2021/09/01 08:15:08;;;;;;;6.85;3.50;;;;;;;18.54;71.14;101206.70;1719278;82;21004;-76
2021/09/01 08:17:34;;;;;;;8.03;3.63;;;;;;;18.67;70.99;101209.44;1723284;83;20999;-76
2021/09/01 08:20:00;;;;;;;8.48;4.22;;;;;;;18.73;70.79;101212.67;1723403;82;20984;-76
2021/09/01 08:22:26;;;;;;;8.88;4.37;;;;;;;18.87;70.48;101209.81;1723302;82;21030;-76
2021/09/01 08:24:52;;;;;;;8.08;4.25;;;;;;;19.00;70.25;101210.34;1722696;82;21476;-76
2021/09/01 08:27:18;;;;;;;7.00;4.05;;;;;;;18.88;70.04;101210.13;1723281;83;20888;-76
2021/09/01 08:29:44;;;;;;;11.00;4.15;;;;;;;18.80;69.76;101222.98;1723303;82;21515;-76
2021/09/01 08:32:10;;;;;;;12.35;4.05;;;;;;;18.50;69.55;101221.61;1722446;82;21888;-76
2021/09/01 08:34:36;;;;;;;8.83;4.03;;;;;;;18.32;69.55;101231.09;1720842;83;20995;-76
2021/09/01 08:37:03;;;;;;;7.15;3.98;;;;;;;18.35;69.41;101220.40;1710850;83;21219;-76
2021/09/01 08:39:30;;;;;;;6.55;4.60;;;;;;;18.39;69.34;101220.31;1713892;82;21016;-76
2021/09/01 08:41:56;;;;;;;4.80;3.35;;;;;;;18.42;69.08;101221.26;1723719;82;21017;-76
2021/09/01 08:44:22;;;;;;;11.30;4.75;;;;;;;18.33;68.87;101219.23;1719249;82;21106;-76
2021/09/01 08:46:51;;;;;;;7.22;3.83;;;;;;;18.42;68.80;101218.05;1709497;82;21060;-76
2021/09/01 08:49:20;;;;;;;9.20;4.10;;;;;;;18.70;68.67;101219.84;1718982;82;21896;-76
2021/09/01 08:51:50;;;;;;;6.60;3.95;;;;;;;18.89;68.42;101215.83;1726899;82;21047;-76
2021/09/01 08:54:15;;;;;;;;;;;;;;;18.95;68.10;101208.80;1742847;82;21099;-76
2021/09/01 08:56:42;;;;;;;5.08;3.47;;;;;;;18.99;67.97;101211.41;1729062;82;20229;-77
2021/09/01 08:59:09;;;;;;;8.60;3.70;;;;;;;19.13;67.89;101209.04;1710395;82;21593;-76
2021/09/01 09:01:53;;;;;;;9.75;5.25;;;;;;;19.17;67.65;101213.52;1718184;83;22034;-76
2021/09/01 09:04:29;;;;;;;6.17;4.03;;;;;;;19.28;67.47;101218.32;1718032;83;21526;-76
2021/09/01 09:07:00;;;;;;;7.15;4.00;;;;;;;19.22;67.20;101215.91;1711712;83;21015;-76
2021/09/01 09:09:34;;;;;;;10.70;4.08;;;;;;;19.21;66.98;101219.64;1705429;82;21011;-76
2021/09/01 09:12:02;;;;;;;7.95;4.20;;;;;;;19.10;66.49;101217.56;1703346;84;21450;-76
2021/09/01 09:14:37;;;;;;;5.85;3.98;;;;;;;18.84;66.41;101216.14;1703079;83;21377;-76
2021/09/01 09:17:14;;;;;;;4.72;3.55;;;;;;;18.84;66.37;101217.49;1703289;83;21056;-76
2021/09/01 09:20:02;;;;;;;6.25;4.55;;;;;;;18.83;66.15;101215.82;1716732;82;21019;-76
2021/09/01 09:22:33;;;;;;;6.58;4.60;;;;;;;18.99;66.12;101215.98;1711987;83;21059;-76
2021/09/01 09:25:19;;;;;;;5.53;4.20;;;;;;;18.90;65.98;101220.72;1712162;83;21702;-76
2021/09/01 09:27:51;;;;;;;9.10;5.22;;;;;;;18.70;66.08;101232.84;1712941;83;21721;-76
2021/09/01 09:30:35;;;;;;;8.25;5.03;;;;;;;18.55;66.07;101227.25;1712694;83;21035;-76
2021/09/01 09:33:16;;;;;;;7.67;4.60;;;;;;;18.77;66.16;101219.34;1712624;83;21039;-76
2021/09/01 09:36:02;;;;;;;10.28;5.30;;;;;;;18.97;65.97;101220.22;1712523;83;21511;-76
2021/09/01 09:38:43;;;;;;;9.28;4.20;;;;;;;19.09;65.77;101223.17;1689393;83;21071;-76
2021/09/01 09:41:28;;;;;;;6.95;4.67;;;;;;;19.15;65.45;101221.82;1711223;83;21198;-76
2021/09/01 09:44:03;;;;;;;9.98;3.90;;;;;;;19.24;65.22;101226.02;1710698;83;21039;-76
2021/09/01 09:46:29;;;;;;;7.37;4.50;;;;;;;19.35;64.99;101228.62;1712824;83;21028;-76
2021/09/01 09:49:06;;;;;;;11.08;6.25;;;;;;;19.47;64.79;101225.62;1712398;83;21482;-76
2021/09/01 09:51:43;;;;;;;7.35;4.78;;;;;;;19.48;64.47;101225.11;1712312;83;21050;-76
2021/09/01 09:54:18;;;;;;;10.15;5.33;;;;;;;19.47;64.17;101220.22;1712938;83;21416;-76
2021/09/01 09:56:45;;;;;;;6.33;3.75;;;;;;;19.46;63.87;101231.27;1710967;83;21292;-76
2021/09/01 09:59:19;;;;;;;8.83;5.35;;;;;;;19.31;63.51;101228.72;1705762;83;22146;-77
2021/09/01 10:01:46;;;;;;;6.67;4.70;;;;;;;19.47;63.65;101227.50;1703276;83;21503;-76
2021/09/01 10:04:12;;;;;;;11.15;4.67;;;;;;;19.59;63.37;101225.84;1705162;83;21108;-76
2021/09/01 10:06:38;;;;;;;8.23;4.78;;;;;;;19.62;63.27;101226.78;1706057;83;21496;-76
2021/09/01 10:09:05;;;;;;;7.22;4.62;;;;;;;19.68;63.18;101232.19;1706219;83;21070;-76
2021/09/01 10:11:32;;;;;;;6.17;4.40;;;;;;;19.73;63.02;101235.62;1707299;83;21857;-76
2021/09/01 10:13:59;;;;;;;9.40;4.30;;;;;;;19.65;62.93;101237.19;1706529;83;21031;-76
2021/09/01 10:16:34;;;;;;;7.05;4.22;;;;;;;19.62;62.91;101238.95;1688317;83;21044;-78
2021/09/01 10:19:05;;;;;;;9.58;5.45;;;;;;;19.72;62.88;101238.02;1708387;83;21270;-78
2021/09/01 10:21:34;;;;;;;8.60;4.40;;;;;;;19.96;62.79;101242.78;1705974;84;21020;-78
2021/09/01 10:24:30;;;;;;;9.37;4.17;;;;;;;19.86;62.55;101237.80;1705577;83;21515;-78
2021/09/01 10:27:28;;;;;;;5.95;3.52;;;;;;;19.89;62.64;101236.53;1688363;84;21086;-78
2021/09/01 10:30:01;;;;;;;6.80;3.92;;;;;;;19.82;62.61;101237.06;1706568;83;21059;-78
2021/09/01 10:32:43;;;;;;;7.25;4.10;;;;;;;19.95;62.59;101222.14;1695543;83;21436;-77
2021/09/01 10:35:18;;;;;;;8.13;4.22;;;;;;;19.80;62.34;101224.27;1701336;83;21117;-78
2021/09/01 10:37:53;;;;;;;6.08;4.12;;;;;;;19.78;62.19;101214.16;1708730;83;21054;-78
2021/09/01 10:40:31;;;;;;;6.03;3.85;;;;;;;19.74;61.92;101218.32;1697333;83;21103;-78
2021/09/01 10:43:02;;;;;;;7.45;3.75;;;;;;;19.72;61.80;101220.42;1715378;83;21072;-77
2021/09/01 10:45:37;;;;;;;6.97;4.70;;;;;;;19.84;61.85;101217.41;1701148;82;22136;-77
2021/09/01 10:48:05;;;;;;;11.12;4.42;;;;;;;19.94;61.70;101221.86;1702674;83;20978;-77
2021/09/01 10:50:40;;;;;;;9.35;4.60;;;;;;;19.93;61.58;101213.42;1708332;82;21027;-77
2021/09/01 10:53:25;;;;;;;6.83;4.30;;;;;;;19.74;61.25;101224.58;1704644;83;21086;-78
2021/09/01 10:56:02;;;;;;;6.50;4.37;;;;;;;19.63;61.09;101214.92;1720783;83;21027;-77
2021/09/01 10:58:41;;;;;;;11.78;4.85;;;;;;;19.65;61.00;101220.95;1729574;82;21328;-77
2021/09/01 11:01:17;;;;;;;7.17;3.33;;;;;;;19.81;61.01;101224.56;1718018;82;21067;-78
2021/09/01 11:04:05;;;;;;;7.58;3.60;;;;;;;19.94;60.83;101221.86;1727416;81;21103;-77
2021/09/01 11:06:37;;;;;;;5.60;3.08;;;;;;;19.93;60.56;101228.31;1709173;82;21119;-77
2021/09/01 11:09:08;;;;;;;5.42;3.42;;;;;;;19.96;60.35;101227.88;1705336;82;21016;-77
2021/09/01 11:11:47;;;;;;;5.33;3.60;;;;;;;19.98;59.99;101229.87;1710867;82;21335;-77
2021/09/01 11:14:40;;;;;;;6.78;3.60;;;;;;;19.83;59.40;101233.33;1707564;82;21477;-78
2021/09/01 11:17:11;;;;;;;12.25;3.92;;;;;;;19.81;59.18;101234.88;1720933;82;21032;-78
2021/09/01 11:19:39;;;;;;;5.45;3.42;;;;;;;19.80;59.00;101231.04;1721076;83;21587;-78
2021/09/01 11:22:07;;;;;;;11.08;3.72;;;;;;;19.85;58.82;101233.94;1724961;81;21051;-78
2021/09/01 11:24:54;;;;;;;6.73;3.97;;;;;;;19.91;58.72;101233.92;1722734;82;22436;-78
2021/09/01 11:27:24;;;;;;;7.60;3.75;;;;;;;19.87;58.41;101233.22;1722362;82;21139;-78